SBJP/JPA METAR and TAF weather

Enter ICAO airport designator
Station Type Date Time Source
SBJP METAR 2020/04/05 16:00 UTC NOAA

SBJP 051600Z 10010KT 9999 SCT030 32/26 Q1011


Station Type Date Time Source
SBJP Decoded METAR 2020/04/05 16:00 UTC NOAA

Joao Pessoa, Brazil (SBJP) 07-06S 034-52W
Apr 05, 2020 - 12:00 PM EDT / 2020.04.05 1600 UTC
Wind: from the E (100 degrees) at 12 MPH (10 KT):0
Visibility: greater than 7 mile(s):0
Sky conditions: partly cloudy
Temperature: 89 F (32 C)
Heat index: 102.9 F (39.4 C):1
Dew Point: 78 F (26 C)
Relative Humidity: 70%
Pressure (altimeter): 29.85 in. Hg (1011 hPa)
ob: SBJP 051600Z 10010KT 9999 SCT030 32/26 Q1011
cycle: 16

Station Type Date Time Source
SBJP TAF 2020/04/05 18:58 UTC NOAA

TAF SBJP 051500 0518/0618 11007KT 9999 SCT025 FEW030TCU TX32/0518Z TN25/0609Z
BECMG 0523/0601 10005KT SCT020
BECMG 0602/0605 18005KT
BECMG 0612/0614 12008KT
BECMG 0615/0617 BKN020 FEW025TCU
RMK PEA

Example: see airport list